createdAt,value
2017-09-05T00:01:09.852Z,13.90
2017-09-05T00:03:37.927Z,13.90
2017-09-05T00:06:05.486Z,13.90
2017-09-05T00:11:53.289Z,13.90
2017-09-05T00:17:33.268Z,13.90
2017-09-05T00:20:06.319Z,13.90
2017-09-05T00:22:33.851Z,13.90
2017-09-05T00:25:01.351Z,13.90
2017-09-05T00:27:28.844Z,13.90
2017-09-05T00:29:56.370Z,13.90
2017-09-05T00:32:23.859Z,13.90
2017-09-05T00:34:51.350Z,13.90
2017-09-05T00:37:18.874Z,13.90
2017-09-05T00:39:46.362Z,13.90
2017-09-05T00:42:13.847Z,13.90
2017-09-05T00:44:41.373Z,13.90
2017-09-05T00:47:08.965Z,13.90
2017-09-05T00:49:36.489Z,14.00
2017-09-05T00:52:03.974Z,14.00
2017-09-05T00:54:31.493Z,14.00
2017-09-05T00:56:58.974Z,14.00
2017-09-05T00:59:26.491Z,14.00
2017-09-05T01:01:53.969Z,14.00
2017-09-05T01:04:21.502Z,14.00
2017-09-05T01:06:48.984Z,14.00
2017-09-05T01:09:16.478Z,14.00
2017-09-05T01:11:43.995Z,14.00
2017-09-05T01:14:11.481Z,14.00
2017-09-05T01:16:38.992Z,14.00
2017-09-05T01:19:06.479Z,14.00
2017-09-05T01:21:33.999Z,14.00
2017-09-05T01:24:01.491Z,14.00
2017-09-05T01:26:28.982Z,14.00
2017-09-05T01:28:56.496Z,14.00
2017-09-05T01:31:23.985Z,14.00
2017-09-05T01:33:51.504Z,14.00
2017-09-05T01:36:18.987Z,14.00
2017-09-05T01:38:46.515Z,14.00
2017-09-05T01:41:14.003Z,14.00
2017-09-05T01:43:41.488Z,14.00
2017-09-05T01:46:09.009Z,14.00
2017-09-05T01:48:36.502Z,14.00
2017-09-05T01:51:04.017Z,14.00
2017-09-05T01:53:31.501Z,14.00
2017-09-05T01:55:59.031Z,14.00
2017-09-05T01:58:26.521Z,14.00
2017-09-05T02:00:54.011Z,14.00
2017-09-05T02:03:21.538Z,14.00
2017-09-05T02:05:49.024Z,14.00
2017-09-05T02:08:16.513Z,14.00
2017-09-05T02:10:44.036Z,14.00
2017-09-05T02:13:11.518Z,14.00
2017-09-05T02:15:39.047Z,14.00
2017-09-05T02:18:06.527Z,14.00
2017-09-05T02:20:34.011Z,14.10
2017-09-05T02:23:01.524Z,14.00
2017-09-05T02:25:29.041Z,14.10
2017-09-05T02:27:56.532Z,14.10
2017-09-05T02:30:24.040Z,14.10
2017-09-05T02:32:51.534Z,14.10
2017-09-05T02:35:19.045Z,14.10
2017-09-05T02:37:46.565Z,14.10
2017-09-05T02:40:14.071Z,14.10
2017-09-05T02:42:41.557Z,14.10
2017-09-05T02:45:09.086Z,14.10
2017-09-05T02:47:36.580Z,14.10
2017-09-05T02:50:04.416Z,14.10
2017-09-05T02:52:31.943Z,14.10
2017-09-05T02:54:59.434Z,14.10
2017-09-05T02:57:27.331Z,14.10
2017-09-05T02:59:54.848Z,14.10
2017-09-05T03:02:22.363Z,14.10
2017-09-05T03:04:49.857Z,14.10
2017-09-05T03:07:17.375Z,14.10
2017-09-05T03:09:44.896Z,14.10
2017-09-05T03:12:12.376Z,14.10
2017-09-05T03:14:39.892Z,14.10
2017-09-05T03:17:07.889Z,14.10
2017-09-05T03:19:35.402Z,14.10
2017-09-05T03:22:02.934Z,14.20
2017-09-05T03:24:30.424Z,14.20
2017-09-05T03:26:57.909Z,14.20
2017-09-05T03:29:25.454Z,14.20
2017-09-05T03:31:52.963Z,14.20
2017-09-05T03:34:20.449Z,14.20
2017-09-05T03:36:47.971Z,14.20
2017-09-05T03:39:16.007Z,14.20
2017-09-05T03:41:43.792Z,14.20
2017-09-05T03:44:14.634Z,14.20
2017-09-05T03:46:45.686Z,14.20
2017-09-05T03:49:13.847Z,14.20
2017-09-05T03:51:41.369Z,14.20
2017-09-05T03:54:09.687Z,14.20
2017-09-05T03:56:40.228Z,14.20
2017-09-05T03:59:08.215Z,14.20
2017-09-05T04:01:36.276Z,14.20
2017-09-05T04:04:04.859Z,14.10
2017-09-05T04:06:34.592Z,14.10
2017-09-05T04:09:02.972Z,14.10
2017-09-05T04:11:32.388Z,14.10
2017-09-05T04:14:00.468Z,14.10
2017-09-05T04:16:28.048Z,14.10
2017-09-05T04:18:55.564Z,14.10
2017-09-05T04:21:23.056Z,14.10
2017-09-05T04:23:50.596Z,14.10
2017-09-05T04:26:18.085Z,14.10
2017-09-05T04:28:45.568Z,14.10
2017-09-05T04:31:13.095Z,14.10
2017-09-05T04:33:40.592Z,14.10
2017-09-05T04:36:08.118Z,14.10
2017-09-05T04:41:09.625Z,14.20
2017-09-05T04:43:37.121Z,14.10
2017-09-05T04:46:05.404Z,14.10
2017-09-05T04:48:32.898Z,14.10
2017-09-05T04:51:00.416Z,14.10
2017-09-05T04:53:27.930Z,14.10
2017-09-05T04:55:55.456Z,14.10
2017-09-05T04:58:22.960Z,14.10
2017-09-05T05:00:50.489Z,14.10
2017-09-05T05:03:17.977Z,14.10
2017-09-05T05:05:45.504Z,14.10
2017-09-05T05:08:13.012Z,14.10
2017-09-05T05:10:40.548Z,14.10
2017-09-05T05:13:08.039Z,14.10
2017-09-05T05:15:35.536Z,14.10
2017-09-05T05:18:03.059Z,14.10
2017-09-05T05:20:30.552Z,14.10
2017-09-05T05:22:58.072Z,14.10
2017-09-05T05:25:25.596Z,14.10
2017-09-05T05:27:53.088Z,14.10
2017-09-05T05:30:20.612Z,14.10
2017-09-05T05:32:48.098Z,14.10
2017-09-05T05:35:15.629Z,14.10
2017-09-05T05:37:43.121Z,14.10
2017-09-05T05:40:11.416Z,14.20
2017-09-05T05:42:38.907Z,14.10
2017-09-05T05:45:06.400Z,14.20
2017-09-05T05:47:33.916Z,14.20
2017-09-05T05:50:01.445Z,14.20
2017-09-05T05:52:28.948Z,14.20
2017-09-05T05:54:56.450Z,14.30
2017-09-05T05:57:23.992Z,14.30
2017-09-05T05:59:51.481Z,14.30
2017-09-05T06:02:18.989Z,14.30
2017-09-05T06:04:46.504Z,14.40
2017-09-05T06:07:13.995Z,14.40
2017-09-05T06:09:41.510Z,14.40
2017-09-05T06:12:09.008Z,14.40
2017-09-05T06:14:36.548Z,14.50
2017-09-05T06:17:04.039Z,14.50
2017-09-05T06:19:31.534Z,14.50
2017-09-05T06:21:59.053Z,14.60
2017-09-05T06:24:26.546Z,14.60
2017-09-05T06:26:54.058Z,14.60
2017-09-05T06:29:21.548Z,14.70
2017-09-05T06:31:49.078Z,14.70
2017-09-05T06:34:16.574Z,14.70
2017-09-05T06:36:44.097Z,14.80
2017-09-05T06:39:11.609Z,14.80
2017-09-05T06:41:39.096Z,14.80
2017-09-05T06:44:06.624Z,14.90
2017-09-05T06:46:34.120Z,14.90
2017-09-05T06:49:01.641Z,15.00
2017-09-05T06:51:29.134Z,15.00
2017-09-05T06:53:56.660Z,15.00
2017-09-05T06:56:24.196Z,15.10
2017-09-05T06:58:51.684Z,15.10
2017-09-05T07:01:19.212Z,15.20
2017-09-05T07:03:46.696Z,15.20
2017-09-05T07:06:14.239Z,15.20
2017-09-05T07:08:41.733Z,15.30
2017-09-05T07:11:09.223Z,15.30
2017-09-05T07:13:36.749Z,15.30
2017-09-05T07:16:04.253Z,15.40
2017-09-05T07:18:31.777Z,15.40
2017-09-05T07:20:59.265Z,15.50
2017-09-05T07:23:26.793Z,15.50
2017-09-05T07:25:54.292Z,15.50
2017-09-05T07:28:22.548Z,15.60
2017-09-05T07:30:50.079Z,15.60
2017-09-05T07:33:17.578Z,15.70
2017-09-05T07:35:45.074Z,15.70
2017-09-05T07:38:12.594Z,15.70
2017-09-05T07:40:40.856Z,15.80
2017-09-05T07:43:08.376Z,15.80
2017-09-05T07:45:35.880Z,15.80
2017-09-05T07:48:03.409Z,15.90
2017-09-05T07:50:30.893Z,15.90
2017-09-05T07:52:58.428Z,15.90
2017-09-05T07:55:25.916Z,16.00
2017-09-05T07:57:53.409Z,16.10
2017-09-05T08:00:20.945Z,16.10
2017-09-05T08:02:48.436Z,16.20
2017-09-05T08:05:15.921Z,16.20
2017-09-05T08:07:43.441Z,16.20
2017-09-05T08:10:11.754Z,16.30
2017-09-05T08:12:39.244Z,16.30
2017-09-05T08:15:06.732Z,16.40
2017-09-05T08:17:34.381Z,16.40
2017-09-05T08:20:01.905Z,16.40
2017-09-05T08:22:29.401Z,16.40
2017-09-05T08:24:56.945Z,16.40
2017-09-05T08:27:24.433Z,16.40
2017-09-05T08:29:51.927Z,16.40
2017-09-05T08:32:19.726Z,16.50
2017-09-05T08:34:47.215Z,16.50
2017-09-05T08:37:14.748Z,16.50
2017-09-05T08:39:42.260Z,16.60
2017-09-05T08:42:09.800Z,16.70
2017-09-05T08:44:37.296Z,16.70
2017-09-05T08:47:04.791Z,16.80
2017-09-05T08:49:32.312Z,16.80
2017-09-05T08:51:59.808Z,16.90
2017-09-05T08:54:27.328Z,16.90
2017-09-05T08:56:54.828Z,17.00
2017-09-05T08:59:23.083Z,17.00
2017-09-05T09:01:52.617Z,17.00
2017-09-05T09:04:20.117Z,17.10
2017-09-05T09:06:47.642Z,17.20
2017-09-05T09:09:15.274Z,17.30
2017-09-05T09:11:43.077Z,17.40
2017-09-05T09:14:11.008Z,17.40
2017-09-05T09:16:38.500Z,17.40
2017-09-05T09:19:07.662Z,17.50
2017-09-05T09:21:35.625Z,17.50
2017-09-05T09:24:03.174Z,17.60
2017-09-05T09:26:30.687Z,17.70
2017-09-05T09:28:58.183Z,17.80
2017-09-05T09:31:25.713Z,17.80
2017-09-05T09:33:53.217Z,17.90
2017-09-05T09:36:20.727Z,17.90
2017-09-05T09:38:48.254Z,17.90
2017-09-05T09:41:15.748Z,17.90
2017-09-05T09:43:43.234Z,17.90
2017-09-05T09:46:11.523Z,17.90
2017-09-05T09:48:39.018Z,17.90
2017-09-05T09:51:06.540Z,17.90
2017-09-05T09:53:34.037Z,17.90
2017-09-05T09:56:01.556Z,17.90
2017-09-05T09:58:29.848Z,18.00
2017-09-05T10:00:57.340Z,18.00
2017-09-05T10:03:24.868Z,18.10
2017-09-05T10:05:52.361Z,18.20
2017-09-05T10:08:19.846Z,18.20
2017-09-05T10:10:47.371Z,18.30
2017-09-05T10:13:14.869Z,18.40
2017-09-05T10:15:42.408Z,18.40
2017-09-05T10:18:09.920Z,18.50
2017-09-05T10:20:37.412Z,18.60
2017-09-05T10:23:04.941Z,18.60
2017-09-05T10:25:32.432Z,18.60
2017-09-05T10:27:59.952Z,18.60
2017-09-05T10:30:27.443Z,18.50
2017-09-05T10:32:54.988Z,18.60
2017-09-05T10:35:22.473Z,18.60
2017-09-05T10:37:49.964Z,18.70
2017-09-05T10:40:17.487Z,18.70
2017-09-05T10:42:44.993Z,18.80
2017-09-05T10:45:12.480Z,18.80
2017-09-05T10:47:40.103Z,18.90
2017-09-05T10:50:07.604Z,18.90
2017-09-05T10:52:35.093Z,18.90
2017-09-05T10:55:02.616Z,18.90
2017-09-05T10:57:30.125Z,19.00
2017-09-05T10:59:57.640Z,19.10
2017-09-05T11:02:25.176Z,19.20
2017-09-05T11:04:52.673Z,19.20
2017-09-05T11:07:20.172Z,19.40
2017-09-05T11:09:47.733Z,19.50
2017-09-05T11:12:15.239Z,19.60
2017-09-05T11:14:42.777Z,19.70
2017-09-05T11:17:10.503Z,19.90
2017-09-05T11:19:38.025Z,19.90
2017-09-05T11:22:06.423Z,19.90
2017-09-05T11:24:34.055Z,19.90
2017-09-05T11:27:01.553Z,19.80
2017-09-05T11:29:29.058Z,19.80
2017-09-05T11:31:56.601Z,19.70
2017-09-05T11:34:24.237Z,19.60
2017-09-05T11:36:52.859Z,19.50
2017-09-05T11:39:20.381Z,19.50
2017-09-05T11:41:47.909Z,19.40
2017-09-05T11:44:15.650Z,19.40
2017-09-05T11:46:43.190Z,19.40
2017-09-05T11:49:10.684Z,19.40
2017-09-05T11:51:38.199Z,19.40
2017-09-05T11:54:05.799Z,19.40
2017-09-05T11:56:33.421Z,19.40
2017-09-05T11:59:01.795Z,19.50
2017-09-05T12:01:32.092Z,19.60
2017-09-05T12:03:59.603Z,19.70
2017-09-05T12:06:27.648Z,19.80
2017-09-05T12:08:55.198Z,20.00
2017-09-05T12:11:22.745Z,20.00
2017-09-05T12:13:50.324Z,20.10
2017-09-05T12:16:17.885Z,20.20
2017-09-05T12:18:45.385Z,20.30
2017-09-05T12:21:12.877Z,20.30
2017-09-05T12:23:40.408Z,20.40
2017-09-05T12:26:07.936Z,20.40
2017-09-05T12:28:35.423Z,20.40
2017-09-05T12:31:02.953Z,20.40
2017-09-05T12:33:30.461Z,20.50
2017-09-05T12:35:57.988Z,20.50
2017-09-05T12:38:25.490Z,20.60
2017-09-05T12:40:53.156Z,20.70
2017-09-05T12:43:20.704Z,20.80
2017-09-05T12:45:48.248Z,20.80
2017-09-05T12:48:15.792Z,20.90
2017-09-05T12:50:43.448Z,21.00
2017-09-05T12:53:11.413Z,21.00
2017-09-05T12:55:38.989Z,21.00
2017-09-05T12:58:06.493Z,21.10
2017-09-05T13:00:34.011Z,21.10
2017-09-05T13:03:01.938Z,21.20
2017-09-05T13:05:29.538Z,21.30
2017-09-05T13:07:57.709Z,21.20
2017-09-05T13:10:25.688Z,21.20
2017-09-05T13:12:53.198Z,21.10
2017-09-05T13:15:20.693Z,21.00
2017-09-05T13:17:48.233Z,20.90
2017-09-05T13:20:15.742Z,20.90
2017-09-05T13:22:43.241Z,20.80
2017-09-05T13:25:10.768Z,20.80
2017-09-05T13:27:38.257Z,20.90
2017-09-05T13:30:05.881Z,20.90
2017-09-05T13:32:33.373Z,20.90
2017-09-05T13:35:00.917Z,20.90
2017-09-05T13:37:28.412Z,20.80
2017-09-05T13:39:55.905Z,20.70
2017-09-05T13:42:23.454Z,20.60
2017-09-05T13:44:50.944Z,20.50
2017-09-05T13:47:18.437Z,20.40
2017-09-05T13:49:45.955Z,20.30
2017-09-05T13:52:13.480Z,20.30
2017-09-05T13:54:40.976Z,20.20
2017-09-05T13:57:08.490Z,20.20
2017-09-05T13:59:35.981Z,20.10
2017-09-05T14:02:03.497Z,20.10
2017-09-05T14:04:30.993Z,20.10
2017-09-05T14:06:58.517Z,20.00
2017-09-05T14:09:26.008Z,20.00
2017-09-05T14:11:53.531Z,20.00
2017-09-05T14:14:21.064Z,20.10
2017-09-05T14:16:48.563Z,20.40
2017-09-05T14:19:16.052Z,20.70
2017-09-05T14:21:43.576Z,21.00
2017-09-05T14:24:11.092Z,21.40
2017-09-05T14:26:38.613Z,21.60
2017-09-05T14:29:06.867Z,21.70
2017-09-05T14:31:34.409Z,21.70
2017-09-05T14:34:01.899Z,21.60
2017-09-05T14:36:29.396Z,21.60
2017-09-05T14:38:56.936Z,21.50
2017-09-05T14:41:24.429Z,21.40
2017-09-05T14:43:51.922Z,21.50
2017-09-05T14:46:19.462Z,21.60
2017-09-05T14:48:46.952Z,21.80
2017-09-05T14:51:14.447Z,22.10
2017-09-05T14:53:42.001Z,22.20
2017-09-05T14:56:09.504Z,22.10
2017-09-05T14:58:37.021Z,21.80
2017-09-05T15:01:04.553Z,21.60
2017-09-05T15:03:32.058Z,21.40
2017-09-05T15:05:59.570Z,21.20
2017-09-05T15:08:27.859Z,20.90
2017-09-05T15:10:55.381Z,20.90
2017-09-05T15:13:22.880Z,20.80
2017-09-05T15:15:50.407Z,20.70
2017-09-05T15:18:17.892Z,20.60
2017-09-05T15:20:45.428Z,20.50
2017-09-05T15:23:12.958Z,20.40
2017-09-05T15:25:40.473Z,20.30
2017-09-05T15:28:08.045Z,20.20
2017-09-05T15:30:35.562Z,20.20
2017-09-05T15:33:03.058Z,20.10
2017-09-05T15:35:30.609Z,20.00
2017-09-05T15:37:58.109Z,20.00
2017-09-05T15:40:25.628Z,20.00
2017-09-05T15:42:53.129Z,20.00
2017-09-05T15:45:20.672Z,19.90
2017-09-05T15:47:48.162Z,19.90
2017-09-05T15:50:15.692Z,19.80
2017-09-05T15:52:43.268Z,19.70
2017-09-05T15:55:10.776Z,19.70
2017-09-05T15:57:39.277Z,19.70
2017-09-05T16:00:06.839Z,19.70
2017-09-05T16:02:34.355Z,19.70
2017-09-05T16:05:01.904Z,19.80
2017-09-05T16:07:29.455Z,19.80
2017-09-05T16:09:56.957Z,19.80
2017-09-05T16:12:24.475Z,19.90
2017-09-05T16:14:52.008Z,20.30
2017-09-05T16:17:19.561Z,20.50
2017-09-05T16:19:47.067Z,20.60
2017-09-05T16:22:14.588Z,20.50
2017-09-05T16:24:42.120Z,20.40
2017-09-05T16:27:09.664Z,20.40
2017-09-05T16:29:37.222Z,20.30
2017-09-05T16:32:04.726Z,20.30
2017-09-05T16:34:32.268Z,20.30
2017-09-05T16:36:59.828Z,20.30
2017-09-05T16:39:27.386Z,20.30
2017-09-05T16:41:54.942Z,20.30
2017-09-05T16:44:22.525Z,20.20
2017-09-05T16:46:50.085Z,20.20
2017-09-05T16:49:17.610Z,20.20
2017-09-05T16:51:45.152Z,20.10
2017-09-05T16:54:12.760Z,20.10
2017-09-05T16:56:40.322Z,20.10
2017-09-05T16:59:08.042Z,20.00
2017-09-05T17:01:35.747Z,20.00
2017-09-05T17:04:03.348Z,19.80
2017-09-05T17:06:30.905Z,19.80
2017-09-05T17:08:58.468Z,19.70
2017-09-05T17:11:26.058Z,19.70
2017-09-05T17:13:53.623Z,19.60
2017-09-05T17:16:21.246Z,19.50
2017-09-05T17:18:48.812Z,19.40
2017-09-05T17:21:17.311Z,19.30
2017-09-05T17:23:45.662Z,19.30
2017-09-05T17:26:13.360Z,19.20
2017-09-05T17:28:40.954Z,19.20
2017-09-05T17:31:08.515Z,19.10
2017-09-05T17:33:36.219Z,19.10
2017-09-05T17:36:03.796Z,19.10
2017-09-05T17:38:31.425Z,19.00
2017-09-05T17:40:59.152Z,18.90
2017-09-05T17:43:26.964Z,18.90
2017-09-05T17:45:54.515Z,18.80
2017-09-05T17:48:22.135Z,18.80
2017-09-05T17:50:49.702Z,18.80
2017-09-05T17:53:17.383Z,18.70
2017-09-05T17:55:44.979Z,18.70
2017-09-05T17:58:13.305Z,18.60
2017-09-05T18:00:41.023Z,18.60
2017-09-05T18:03:08.578Z,18.60
2017-09-05T18:05:36.267Z,18.50
2017-09-05T18:08:03.860Z,18.50
2017-09-05T18:10:31.651Z,18.50
2017-09-05T18:13:00.197Z,18.40
2017-09-05T18:15:27.770Z,18.40
2017-09-05T18:20:29.394Z,18.30
2017-09-05T18:22:57.066Z,18.30
2017-09-05T18:25:24.792Z,18.30
2017-09-05T18:27:52.493Z,18.30
2017-09-05T18:30:20.188Z,18.20
2017-09-05T18:32:47.822Z,18.20
2017-09-05T18:35:15.377Z,18.20
2017-09-05T18:37:42.925Z,18.20
2017-09-05T18:40:10.537Z,18.20
2017-09-05T18:42:38.083Z,18.10
2017-09-05T18:45:05.655Z,18.10
2017-09-05T18:47:33.368Z,18.10
2017-09-05T18:50:00.890Z,18.10
2017-09-05T18:52:28.387Z,18.10
2017-09-05T18:54:56.075Z,18.10
2017-09-05T18:57:23.670Z,18.10
2017-09-05T18:59:51.366Z,18.10
2017-09-05T19:02:18.906Z,18.10
2017-09-05T19:04:46.594Z,18.00
2017-09-05T19:07:14.280Z,18.00
2017-09-05T19:09:41.875Z,18.00
2017-09-05T19:12:09.581Z,18.00
2017-09-05T19:14:37.142Z,18.00
2017-09-05T19:17:04.917Z,17.90
2017-09-05T19:19:32.599Z,17.90
2017-09-05T19:22:00.223Z,17.90
2017-09-05T19:24:27.911Z,17.80
2017-09-05T19:26:55.620Z,17.80
2017-09-05T19:29:23.210Z,17.80
2017-09-05T19:31:50.880Z,17.80
2017-09-05T19:34:18.479Z,17.70
2017-09-05T19:36:46.048Z,17.70
2017-09-05T19:39:13.767Z,17.70
2017-09-05T19:41:41.480Z,17.70
2017-09-05T19:44:09.073Z,17.60
2017-09-05T19:46:36.673Z,17.60
2017-09-05T19:49:04.397Z,17.60
2017-09-05T19:51:31.957Z,17.60
2017-09-05T19:53:59.703Z,17.60
2017-09-05T19:56:27.260Z,17.60
2017-09-05T19:58:54.806Z,17.60
2017-09-05T20:01:22.525Z,17.50
2017-09-05T20:03:50.218Z,17.50
2017-09-05T20:06:17.797Z,17.50
2017-09-05T20:08:45.484Z,17.50
2017-09-05T20:11:13.074Z,17.50
2017-09-05T20:13:40.573Z,17.50
2017-09-05T20:16:08.161Z,17.40
2017-09-05T20:18:35.727Z,17.40
2017-09-05T20:21:03.465Z,17.40
2017-09-05T20:23:31.152Z,17.40
2017-09-05T20:25:58.707Z,17.40
2017-09-05T20:28:26.521Z,17.40
2017-09-05T20:30:54.227Z,17.40
2017-09-05T20:33:21.959Z,17.30
2017-09-05T20:35:49.506Z,17.30
2017-09-05T20:38:17.068Z,17.30
2017-09-05T20:40:44.669Z,17.30
2017-09-05T20:43:12.177Z,17.30
2017-09-05T20:45:39.709Z,17.30
2017-09-05T20:48:07.281Z,17.30
2017-09-05T20:50:34.899Z,17.30
2017-09-05T20:53:02.404Z,17.20
2017-09-05T20:55:29.978Z,17.20
2017-09-05T20:57:57.469Z,17.20
2017-09-05T21:00:25.038Z,17.20
2017-09-05T21:02:52.556Z,17.20
2017-09-05T21:05:20.118Z,17.20
2017-09-05T21:07:47.713Z,17.20
2017-09-05T21:10:15.280Z,17.10
2017-09-05T21:12:42.910Z,17.10
2017-09-05T21:15:10.480Z,17.10
2017-09-05T21:17:37.978Z,17.10
2017-09-05T21:20:05.518Z,17.00
2017-09-05T21:22:33.013Z,17.00
2017-09-05T21:25:00.569Z,17.00
2017-09-05T21:27:28.157Z,16.90
2017-09-05T21:29:55.712Z,16.90
2017-09-05T21:32:23.241Z,16.80
2017-09-05T21:34:50.732Z,16.80
2017-09-05T21:37:18.292Z,16.80
2017-09-05T21:39:45.824Z,16.70
2017-09-05T21:42:13.381Z,16.70
2017-09-05T21:44:40.908Z,16.60
2017-09-05T21:47:08.391Z,16.60
2017-09-05T21:49:35.924Z,16.60
2017-09-05T21:52:03.512Z,16.50
2017-09-05T21:54:31.073Z,16.50
2017-09-05T21:56:58.602Z,16.50
2017-09-05T21:59:26.179Z,16.50
2017-09-05T22:01:53.676Z,16.50
2017-09-05T22:04:21.183Z,16.50
2017-09-05T22:06:48.707Z,16.50
2017-09-05T22:09:16.277Z,16.50
2017-09-05T22:11:43.772Z,16.50
2017-09-05T22:14:16.920Z,16.50
2017-09-05T22:16:44.492Z,16.50
2017-09-05T22:19:17.706Z,16.50
2017-09-05T22:21:45.244Z,16.50
2017-09-05T22:24:12.750Z,16.50
2017-09-05T22:26:45.917Z,16.60
2017-09-05T22:29:13.411Z,16.60
2017-09-05T22:31:40.952Z,16.60
2017-09-05T22:34:08.454Z,16.50
2017-09-05T22:36:35.953Z,16.60
2017-09-05T22:39:03.488Z,16.60
2017-09-05T22:41:30.980Z,16.60
2017-09-05T22:43:58.507Z,16.60
2017-09-05T22:46:25.997Z,16.60
2017-09-05T22:48:53.533Z,16.60
2017-09-05T22:51:21.028Z,16.60
2017-09-05T22:53:48.524Z,16.60
2017-09-05T22:56:16.040Z,16.50
2017-09-05T22:58:43.534Z,16.60
2017-09-05T23:01:11.052Z,16.60
2017-09-05T23:03:38.573Z,16.60
2017-09-05T23:06:06.060Z,16.60
2017-09-05T23:08:33.631Z,16.60
2017-09-05T23:11:01.128Z,16.60
2017-09-05T23:13:28.665Z,16.60
2017-09-05T23:15:56.157Z,16.60
2017-09-05T23:18:23.647Z,16.60
2017-09-05T23:20:51.172Z,16.60
2017-09-05T23:23:18.685Z,16.60
2017-09-05T23:25:46.204Z,16.60
2017-09-05T23:28:13.705Z,16.60
2017-09-05T23:30:41.238Z,16.60
2017-09-05T23:33:08.729Z,16.70
2017-09-05T23:35:36.231Z,16.70
2017-09-05T23:38:03.764Z,16.60
2017-09-05T23:40:31.257Z,16.70
2017-09-05T23:42:58.784Z,16.70
2017-09-05T23:45:26.268Z,16.70
2017-09-05T23:47:53.757Z,16.70
2017-09-05T23:50:21.284Z,16.70
2017-09-05T23:52:48.772Z,16.70
2017-09-05T23:55:16.292Z,16.80
2017-09-05T23:57:43.828Z,16.80
